Time;durP1;ratioP1;P1;durP2;ratioP2;P2;SDS_P1;SDS_P2;PMS_P1;PMS_P2;Temp;Humidity;BMP_temperature;BMP_pressure;BME280_temperature;BME280_humidity;BME280_pressure;Samples;Min_cycle;Max_cycle;Signal;HPM_P1;HPM_P2
2023/07/19 00:00:01;;;;;;;10.43;1.55;;;;;;;;;;2058124;28;20031;-61
2023/07/19 00:01:20;;;;;;;2.78;0.88;;;;;;;;;;2060619;28;20042;-61
2023/07/19 00:02:39;;;;;;;2.65;0.60;;;;;;;;;;2058159;28;20034;-61
2023/07/19 00:03:58;;;;;;;3.90;0.70;;;;;;;;;;2058971;28;20031;-61
2023/07/19 00:05:17;;;;;;;3.50;0.82;;;;;;;;;;2056604;28;20026;-61
2023/07/19 00:06:35;;;;;;;2.88;0.55;;;;;;;;;;2057329;28;20026;-61
2023/07/19 00:07:54;;;;;;;3.22;0.70;;;;;;;;;;2057973;28;20034;-61
2023/07/19 00:09:13;;;;;;;1.90;0.75;;;;;;;;;;2060313;28;20039;-61
2023/07/19 00:10:32;;;;;;;4.15;1.05;;;;;;;;;;2059006;28;20554;-61
2023/07/19 00:11:51;;;;;;;5.15;0.88;;;;;;;;;;2057179;28;20034;-61
2023/07/19 00:13:10;;;;;;;2.22;0.98;;;;;;;;;;2057818;28;20415;-61
2023/07/19 00:14:29;;;;;;;0.73;0.50;;;;;;;;;;2057992;28;20038;-62
2023/07/19 00:15:48;;;;;;;6.53;0.80;;;;;;;;;;2057132;28;20494;-61
2023/07/19 00:17:07;;;;;;;3.13;1.10;;;;;;;;;;2057731;28;20098;-62
2023/07/19 00:18:26;;;;;;;4.45;0.82;;;;;;;;;;2057632;28;20027;-61
2023/07/19 00:19:45;;;;;;;2.25;0.90;;;;;;;;;;2058034;28;20034;-61
2023/07/19 00:21:04;;;;;;;7.22;1.30;;;;;;;;;;2058064;28;20455;-60
2023/07/19 00:22:23;;;;;;;4.07;0.85;;;;;;;;;;2058801;28;20646;-60
2023/07/19 00:23:42;;;;;;;2.58;0.82;;;;;;;;;;2060128;28;20026;-61
2023/07/19 00:25:01;;;;;;;4.30;0.80;;;;;;;;;;2057619;28;20038;-61
2023/07/19 00:26:20;;;;;;;3.65;0.80;;;;;;;;;;2058130;28;20031;-62
2023/07/19 00:27:39;;;;;;;3.85;0.68;;;;;;;;;;2056353;28;20031;-60
2023/07/19 00:28:58;;;;;;;3.92;0.90;;;;;;;;;;2056587;28;20392;-61
2023/07/19 00:30:17;;;;;;;2.88;1.27;;;;;;;;;;2051205;28;20031;-62
2023/07/19 00:31:36;;;;;;;2.97;0.85;;;;;;;;;;2054824;28;20035;-61
2023/07/19 00:32:55;;;;;;;1.95;0.70;;;;;;;;;;2057194;28;20495;-60
2023/07/19 00:34:14;;;;;;;3.78;1.23;;;;;;;;;;2060639;28;20114;-61
2023/07/19 00:35:34;;;;;;;2.05;0.75;;;;;;;;;;2058054;28;20031;-62
2023/07/19 00:36:53;;;;;;;4.00;0.88;;;;;;;;;;2058480;28;20051;-61
2023/07/19 00:38:13;;;;;;;3.95;0.88;;;;;;;;;;2058663;28;20051;-61
2023/07/19 00:39:32;;;;;;;2.67;0.95;;;;;;;;;;2062253;28;20043;-61
2023/07/19 00:40:51;;;;;;;3.08;0.93;;;;;;;;;;2059625;28;20534;-60
2023/07/19 00:42:10;;;;;;;3.30;1.02;;;;;;;;;;2063004;28;20124;-61
2023/07/19 00:43:29;;;;;;;3.65;0.90;;;;;;;;;;2057864;28;20031;-59
2023/07/19 00:44:48;;;;;;;4.47;1.02;;;;;;;;;;2056676;28;20030;-60
2023/07/19 00:46:07;;;;;;;2.83;0.98;;;;;;;;;;2056347;28;20034;-60
2023/07/19 00:47:27;;;;;;;2.50;1.02;;;;;;;;;;2061540;28;20023;-60
2023/07/19 00:48:46;;;;;;;3.83;0.73;;;;;;;;;;2057389;28;20027;-60
2023/07/19 00:50:06;;;;;;;2.85;0.70;;;;;;;;;;2060548;28;20031;-60
2023/07/19 00:51:26;;;;;;;3.40;0.75;;;;;;;;;;2058035;28;20387;-60
2023/07/19 00:52:45;;;;;;;7.47;1.05;;;;;;;;;;2057766;28;20097;-60
2023/07/19 00:54:05;;;;;;;6.70;1.05;;;;;;;;;;2057746;28;20031;-59
2023/07/19 00:55:24;;;;;;;4.68;1.00;;;;;;;;;;2058717;28;20072;-61
2023/07/19 00:56:44;;;;;;;4.57;1.00;;;;;;;;;;2058961;28;20038;-60
2023/07/19 00:58:03;;;;;;;4.72;0.88;;;;;;;;;;2048786;28;20027;-59
2023/07/19 00:59:23;;;;;;;3.35;0.90;;;;;;;;;;2054756;28;20454;-59
2023/07/19 01:00:42;;;;;;;3.85;1.10;;;;;;;;;;2058512;28;20547;-60
2023/07/19 01:02:01;;;;;;;3.25;1.10;;;;;;;;;;2057899;28;20411;-60
2023/07/19 01:03:20;;;;;;;5.55;1.00;;;;;;;;;;2051430;28;20027;-64
2023/07/19 01:04:39;;;;;;;5.75;0.90;;;;;;;;;;2054113;28;20038;-60
2023/07/19 01:05:58;;;;;;;4.18;1.00;;;;;;;;;;2060794;28;20031;-60
2023/07/19 01:07:17;;;;;;;4.88;1.17;;;;;;;;;;2058636;28;20032;-60
2023/07/19 01:08:36;;;;;;;6.55;1.00;;;;;;;;;;2051449;28;20035;-61
2023/07/19 01:09:55;;;;;;;6.15;1.30;;;;;;;;;;2055919;28;20027;-60
2023/07/19 01:11:15;;;;;;;1.80;0.80;;;;;;;;;;2058305;28;20619;-60
2023/07/19 01:12:34;;;;;;;4.40;1.00;;;;;;;;;;2061542;28;20472;-59
2023/07/19 01:13:54;;;;;;;4.40;1.20;;;;;;;;;;2059127;28;20035;-60
2023/07/19 01:15:13;;;;;;;5.80;1.20;;;;;;;;;;2058894;28;20031;-60
2023/07/19 01:16:32;;;;;;;2.75;1.00;;;;;;;;;;2060347;28;20022;-60
2023/07/19 01:17:51;;;;;;;4.68;0.82;;;;;;;;;;2051588;28;20019;-61
2023/07/19 01:19:10;;;;;;;3.22;1.10;;;;;;;;;;2056039;28;20035;-59
2023/07/19 01:20:29;;;;;;;5.63;1.30;;;;;;;;;;2060009;28;20023;-59
2023/07/19 01:21:48;;;;;;;7.75;1.10;;;;;;;;;;2057978;28;20018;-61
2023/07/19 01:23:07;;;;;;;4.00;0.93;;;;;;;;;;2057228;28;20031;-59
2023/07/19 01:24:26;;;;;;;2.75;1.00;;;;;;;;;;2057673;28;20035;-60
2023/07/19 01:25:44;;;;;;;2.90;0.98;;;;;;;;;;2058366;28;20035;-59
2023/07/19 01:27:04;;;;;;;4.50;1.10;;;;;;;;;;2058111;28;20039;-59
2023/07/19 01:28:23;;;;;;;5.13;0.90;;;;;;;;;;2063957;28;20113;-60
2023/07/19 01:29:42;;;;;;;10.65;1.88;;;;;;;;;;2062697;28;20030;-60
2023/07/19 01:31:03;;;;;;;5.20;1.30;;;;;;;;;;2058367;28;20026;-59
2023/07/19 01:32:22;;;;;;;3.42;1.30;;;;;;;;;;2058453;28;20022;-60
2023/07/19 01:33:41;;;;;;;2.85;0.88;;;;;;;;;;2063396;28;20030;-60
2023/07/19 01:35:00;;;;;;;4.22;0.90;;;;;;;;;;2059831;28;20395;-60
2023/07/19 01:36:20;;;;;;;6.90;1.00;;;;;;;;;;2057814;28;20118;-60
2023/07/19 01:37:39;;;;;;;4.20;1.00;;;;;;;;;;2059499;28;20034;-60
2023/07/19 01:38:58;;;;;;;3.75;1.48;;;;;;;;;;2059461;28;20113;-60
2023/07/19 01:40:17;;;;;;;5.47;1.08;;;;;;;;;;2058358;28;20113;-60
2023/07/19 01:41:36;;;;;;;3.35;1.30;;;;;;;;;;2057701;28;20071;-59
2023/07/19 01:42:55;;;;;;;7.20;1.42;;;;;;;;;;2057658;28;20403;-59
2023/07/19 01:44:15;;;;;;;4.78;1.23;;;;;;;;;;2058352;28;20121;-59
2023/07/19 01:45:33;;;;;;;5.25;1.05;;;;;;;;;;2058895;28;20039;-60
2023/07/19 01:46:52;;;;;;;6.20;1.05;;;;;;;;;;2058170;28;20023;-59
2023/07/19 01:48:11;;;;;;;5.35;1.13;;;;;;;;;;2059474;28;20030;-59
2023/07/19 01:49:30;;;;;;;3.83;1.15;;;;;;;;;;2058572;28;20019;-59
2023/07/19 01:50:49;;;;;;;3.88;1.20;;;;;;;;;;2058569;28;20096;-59
2023/07/19 01:52:08;;;;;;;4.60;1.02;;;;;;;;;;2058599;28;20042;-61
2023/07/19 01:53:27;;;;;;;3.08;1.00;;;;;;;;;;2058089;28;20035;-60
2023/07/19 01:54:46;;;;;;;5.75;1.20;;;;;;;;;;2058362;28;20035;-61
2023/07/19 01:56:05;;;;;;;3.53;1.08;;;;;;;;;;2058559;28;20110;-60
2023/07/19 01:57:24;;;;;;;6.53;1.20;;;;;;;;;;2057736;28;20034;-59
2023/07/19 01:58:43;;;;;;;6.25;1.10;;;;;;;;;;2060607;28;20035;-60
2023/07/19 02:00:03;;;;;;;4.25;0.90;;;;;;;;;;2058516;28;20286;-59
2023/07/19 02:01:22;;;;;;;6.53;1.05;;;;;;;;;;2058827;28;20035;-59
2023/07/19 02:02:41;;;;;;;5.40;0.95;;;;;;;;;;2058747;28;20027;-59
2023/07/19 02:04:00;;;;;;;4.63;0.90;;;;;;;;;;2047749;28;20047;-60
2023/07/19 02:05:19;;;;;;;6.57;1.17;;;;;;;;;;2053502;28;20034;-59
2023/07/19 02:06:38;;;;;;;5.68;1.25;;;;;;;;;;2063594;28;20033;-60
2023/07/19 02:07:57;;;;;;;7.90;1.25;;;;;;;;;;2056967;28;20121;-60
2023/07/19 02:09:15;;;;;;;5.43;1.30;;;;;;;;;;2058612;28;20474;-59
2023/07/19 02:10:34;;;;;;;4.18;1.40;;;;;;;;;;2057818;28;20038;-61
2023/07/19 02:11:53;;;;;;;3.35;1.02;;;;;;;;;;2057539;28;20026;-60
2023/07/19 02:13:12;;;;;;;4.93;1.10;;;;;;;;;;2056330;28;20043;-59
2023/07/19 02:14:31;;;;;;;3.25;0.98;;;;;;;;;;2059961;28;20036;-59
2023/07/19 02:15:50;;;;;;;3.60;1.42;;;;;;;;;;2059310;28;20038;-59
2023/07/19 02:17:10;;;;;;;3.33;1.10;;;;;;;;;;2056567;28;20500;-60
2023/07/19 02:18:29;;;;;;;5.20;1.00;;;;;;;;;;2057941;28;20128;-64
2023/07/19 02:19:48;;;;;;;3.40;0.93;;;;;;;;;;2056370;28;20026;-59
2023/07/19 02:21:07;;;;;;;9.32;0.93;;;;;;;;;;2049930;28;20035;-60
2023/07/19 02:22:26;;;;;;;8.15;0.90;;;;;;;;;;2053216;28;20075;-60
2023/07/19 02:23:45;;;;;;;5.80;1.50;;;;;;;;;;2058460;28;20038;-59
2023/07/19 02:25:04;;;;;;;6.30;1.35;;;;;;;;;;2066016;28;20429;-60
2023/07/19 02:26:23;;;;;;;7.32;1.00;;;;;;;;;;2056161;28;20042;-61
2023/07/19 02:27:41;;;;;;;4.93;1.00;;;;;;;;;;2058462;28;20027;-60
2023/07/19 02:29:02;;;;;;;4.65;1.00;;;;;;;;;;2056922;28;20692;-62
2023/07/19 02:30:21;;;;;;;7.30;1.15;;;;;;;;;;2056607;28;20391;-60
2023/07/19 02:31:40;;;;;;;6.93;1.20;;;;;;;;;;2056632;28;20027;-60
2023/07/19 02:32:59;;;;;;;4.10;0.98;;;;;;;;;;2057497;28;20038;-60
2023/07/19 02:34:20;;;;;;;4.38;1.15;;;;;;;;;;2054292;28;20062;-60
2023/07/19 02:35:39;;;;;;;4.25;1.00;;;;;;;;;;2058398;28;20034;-59
2023/07/19 02:36:58;;;;;;;3.90;1.27;;;;;;;;;;2058057;28;20042;-60
2023/07/19 02:38:17;;;;;;;3.58;1.50;;;;;;;;;;2049043;28;20512;-60
2023/07/19 02:39:36;;;;;;;5.22;1.40;;;;;;;;;;2053974;28;20404;-60
2023/07/19 02:40:59;;;;;;;3.80;1.00;;;;;;;;;;2060225;28;20395;-60
2023/07/19 02:42:18;;;;;;;8.88;1.63;;;;;;;;;;2062613;28;20436;-60
2023/07/19 02:43:37;;;;;;;2.88;1.15;;;;;;;;;;2057964;28;20496;-60
2023/07/19 02:44:56;;;;;;;4.82;1.13;;;;;;;;;;2057615;28;20035;-59
2023/07/19 02:46:15;;;;;;;4.32;1.58;;;;;;;;;;2056497;28;20117;-58
2023/07/19 02:47:33;;;;;;;7.03;1.63;;;;;;;;;;2056225;28;20026;-59
2023/07/19 02:48:52;;;;;;;6.88;1.30;;;;;;;;;;2050422;28;20035;-61
2023/07/19 02:50:11;;;;;;;3.45;1.40;;;;;;;;;;2049209;28;20058;-60
2023/07/19 02:51:31;;;;;;;6.78;1.15;;;;;;;;;;2054248;28;20043;-60
2023/07/19 02:52:50;;;;;;;6.80;1.10;;;;;;;;;;2058025;28;20391;-60
2023/07/19 02:54:09;;;;;;;5.25;1.02;;;;;;;;;;2057470;28;20034;-61
2023/07/19 02:55:28;;;;;;;3.38;1.10;;;;;;;;;;2056681;28;20027;-61
2023/07/19 02:56:47;;;;;;;5.18;1.33;;;;;;;;;;2059483;28;20097;-60
2023/07/19 02:58:06;;;;;;;2.95;1.48;;;;;;;;;;2060909;28;20434;-59
2023/07/19 02:59:25;;;;;;;5.20;1.33;;;;;;;;;;2057540;28;20066;-60
2023/07/19 03:00:44;;;;;;;5.60;1.20;;;;;;;;;;2056869;28;20023;-59
2023/07/19 03:02:02;;;;;;;4.05;1.52;;;;;;;;;;2056262;28;20411;-60
2023/07/19 03:03:21;;;;;;;6.65;1.25;;;;;;;;;;2060553;28;20122;-61
2023/07/19 03:04:40;;;;;;;3.83;1.15;;;;;;;;;;2060322;28;20031;-59
2023/07/19 03:06:02;;;;;;;3.58;1.13;;;;;;;;;;2056886;28;20039;-60
2023/07/19 03:07:21;;;;;;;8.25;1.20;;;;;;;;;;2057196;28;20055;-58
2023/07/19 03:08:40;;;;;;;5.50;1.38;;;;;;;;;;2056116;28;20476;-62
2023/07/19 03:09:59;;;;;;;2.65;1.23;;;;;;;;;;2057611;28;20031;-58
2023/07/19 03:11:18;;;;;;;6.20;1.45;;;;;;;;;;2058311;28;20445;-59
2023/07/19 03:12:37;;;;;;;6.07;1.10;;;;;;;;;;2055326;28;20035;-61
2023/07/19 03:13:56;;;;;;;5.13;1.10;;;;;;;;;;2063986;28;20032;-61
2023/07/19 03:15:15;;;;;;;11.57;2.03;;;;;;;;;;2056192;28;20023;-60
2023/07/19 03:16:34;;;;;;;6.60;1.30;;;;;;;;;;2057996;28;20031;-59
2023/07/19 03:17:53;;;;;;;6.90;1.75;;;;;;;;;;2056367;28;20031;-59
2023/07/19 03:19:12;;;;;;;6.13;1.38;;;;;;;;;;2057233;28;20062;-60
2023/07/19 03:20:31;;;;;;;5.55;1.27;;;;;;;;;;2055374;28;20035;-60
2023/07/19 03:21:50;;;;;;;5.22;1.48;;;;;;;;;;2058697;28;20031;-60
2023/07/19 03:23:09;;;;;;;5.57;1.55;;;;;;;;;;2059522;28;20031;-58
2023/07/19 03:24:28;;;;;;;4.93;1.48;;;;;;;;;;2058471;28;20383;-61
2023/07/19 03:25:47;;;;;;;3.22;1.48;;;;;;;;;;2056587;28;20027;-60
2023/07/19 03:27:06;;;;;;;5.65;1.50;;;;;;;;;;2055663;28;20039;-59
2023/07/19 03:28:25;;;;;;;5.40;1.20;;;;;;;;;;2057448;28;20038;-59
2023/07/19 03:29:44;;;;;;;7.57;1.20;;;;;;;;;;2056704;28;20391;-60
2023/07/19 03:31:03;;;;;;;3.03;1.30;;;;;;;;;;2064285;28;20050;-60
2023/07/19 03:32:22;;;;;;;8.93;1.50;;;;;;;;;;2055575;28;20031;-60
2023/07/19 03:33:41;;;;;;;6.80;1.70;;;;;;;;;;2055350;28;20026;-59
2023/07/19 03:35:00;;;;;;;7.53;1.70;;;;;;;;;;2055952;28;20019;-60
2023/07/19 03:36:19;;;;;;;4.57;1.40;;;;;;;;;;2056935;28;20039;-61
2023/07/19 03:37:38;;;;;;;10.15;1.73;;;;;;;;;;2057596;28;20038;-60
2023/07/19 03:38:57;;;;;;;7.00;1.60;;;;;;;;;;2055461;28;20065;-60
2023/07/19 03:40:16;;;;;;;4.55;1.20;;;;;;;;;;2067571;28;20067;-59
2023/07/19 03:41:35;;;;;;;7.15;1.33;;;;;;;;;;2058002;28;20103;-60
2023/07/19 03:42:54;;;;;;;9.38;1.67;;;;;;;;;;2058220;28;20039;-70
2023/07/19 03:44:13;;;;;;;5.97;1.67;;;;;;;;;;2051165;28;20039;-60
2023/07/19 03:45:32;;;;;;;4.85;1.02;;;;;;;;;;2053983;28;20030;-59
2023/07/19 03:46:50;;;;;;;6.25;1.60;;;;;;;;;;2048679;28;20027;-60
2023/07/19 03:48:09;;;;;;;5.05;1.30;;;;;;;;;;2060474;28;20476;-60
2023/07/19 03:49:28;;;;;;;5.43;1.80;;;;;;;;;;2056873;28;20543;-60
2023/07/19 03:50:57;;;;;;;8.90;1.50;;;;;;;;;;2057746;28;20023;-60
2023/07/19 03:52:16;;;;;;;5.63;1.50;;;;;;;;;;2056128;28;20544;-59
2023/07/19 03:53:35;;;;;;;5.63;1.45;;;;;;;;;;2050780;28;20106;-59
2023/07/19 03:54:56;;;;;;;6.45;1.48;;;;;;;;;;2055398;28;20027;-59
2023/07/19 03:56:15;;;;;;;6.30;1.52;;;;;;;;;;2057101;28;20442;-60
2023/07/19 03:57:33;;;;;;;6.93;1.30;;;;;;;;;;2055987;28;20042;-61
2023/07/19 03:58:52;;;;;;;7.03;1.77;;;;;;;;;;2052780;28;20531;-60
2023/07/19 04:00:11;;;;;;;7.10;1.52;;;;;;;;;;2052516;28;20472;-59
2023/07/19 04:01:30;;;;;;;6.43;1.30;;;;;;;;;;2056693;28;20133;-60
2023/07/19 04:02:50;;;;;;;8.68;1.60;;;;;;;;;;2055676;28;20034;-60
2023/07/19 04:04:10;;;;;;;3.83;1.40;;;;;;;;;;2055898;28;20062;-59
2023/07/19 04:05:29;;;;;;;3.88;1.50;;;;;;;;;;2055663;28;20601;-60
2023/07/19 04:06:48;;;;;;;8.15;1.98;;;;;;;;;;2056297;28;20488;-59
2023/07/19 04:08:07;;;;;;;6.55;1.60;;;;;;;;;;2056163;28;20027;-60
2023/07/19 04:09:26;;;;;;;9.40;1.35;;;;;;;;;;2055732;28;20027;-60
2023/07/19 04:10:45;;;;;;;3.88;1.20;;;;;;;;;;2063841;28;20017;-60
2023/07/19 04:12:04;;;;;;;4.40;1.30;;;;;;;;;;2058022;28;20066;-59
2023/07/19 04:13:23;;;;;;;4.90;1.40;;;;;;;;;;2056769;28;20030;-60
2023/07/19 04:14:42;;;;;;;5.03;1.92;;;;;;;;;;2057095;28;20031;-60
2023/07/19 04:16:01;;;;;;;8.50;2.03;;;;;;;;;;2057062;28;20513;-59
2023/07/19 04:17:20;;;;;;;6.28;1.45;;;;;;;;;;2056345;28;20046;-58
2023/07/19 04:18:39;;;;;;;8.65;1.88;;;;;;;;;;2049599;28;20033;-60
2023/07/19 04:19:57;;;;;;;7.70;1.35;;;;;;;;;;2057710;28;20031;-61
2023/07/19 04:21:16;;;;;;;9.27;1.80;;;;;;;;;;2056088;28;20030;-67
2023/07/19 04:22:35;;;;;;;5.38;1.60;;;;;;;;;;2056632;28;20773;-59
2023/07/19 04:23:53;;;;;;;8.63;1.60;;;;;;;;;;2056390;28;20480;-60
2023/07/19 04:25:12;;;;;;;9.25;1.73;;;;;;;;;;2056291;28;20039;-59
2023/07/19 04:26:31;;;;;;;4.82;1.50;;;;;;;;;;2057406;28;20034;-59
2023/07/19 04:27:51;;;;;;;7.55;1.95;;;;;;;;;;2062294;28;20041;-59
2023/07/19 04:29:10;;;;;;;13.25;1.70;;;;;;;;;;2053302;28;20079;-59
2023/07/19 04:30:29;;;;;;;5.35;1.60;;;;;;;;;;2056646;28;20027;-59
2023/07/19 04:31:48;;;;;;;13.27;2.25;;;;;;;;;;2056054;28;20696;-61
2023/07/19 04:33:08;;;;;;;5.63;1.60;;;;;;;;;;2057480;28;20391;-59
2023/07/19 04:34:26;;;;;;;7.15;1.30;;;;;;;;;;2057185;28;20066;-59
2023/07/19 04:35:47;;;;;;;10.10;1.67;;;;;;;;;;2055434;28;20034;-61
2023/07/19 04:37:06;;;;;;;8.35;1.38;;;;;;;;;;2061820;28;20027;-59
2023/07/19 04:38:25;;;;;;;7.05;1.73;;;;;;;;;;2057125;28;20436;-59
2023/07/19 04:39:44;;;;;;;9.63;1.65;;;;;;;;;;2055852;28;20070;-58
2023/07/19 04:41:04;;;;;;;8.23;1.45;;;;;;;;;;2056590;28;20473;-59
2023/07/19 04:42:23;;;;;;;7.15;2.10;;;;;;;;;;2046638;28;20142;-60
2023/07/19 04:43:41;;;;;;;7.88;2.10;;;;;;;;;;2051736;28;20117;-59
2023/07/19 04:45:00;;;;;;;10.00;1.60;;;;;;;;;;2058533;28;20479;-60
2023/07/19 04:46:20;;;;;;;9.32;1.52;;;;;;;;;;2061761;28;20043;-59
2023/07/19 04:47:39;;;;;;;8.85;1.80;;;;;;;;;;2058230;28;20034;-61
2023/07/19 04:48:58;;;;;;;7.95;1.60;;;;;;;;;;2057335;28;20027;-59
2023/07/19 04:50:17;;;;;;;5.07;1.77;;;;;;;;;;2048601;28;20059;-60
2023/07/19 04:51:38;;;;;;;9.45;2.13;;;;;;;;;;2053976;28;20030;-59
2023/07/19 04:52:57;;;;;;;10.90;1.95;;;;;;;;;;2057549;28;20027;-59
2023/07/19 04:54:17;;;;;;;4.45;1.27;;;;;;;;;;2057092;28;20026;-60
2023/07/19 04:55:38;;;;;;;8.13;1.60;;;;;;;;;;2057325;28;20035;-59
2023/07/19 04:56:57;;;;;;;10.60;1.77;;;;;;;;;;2058115;28;20395;-59
2023/07/19 04:58:16;;;;;;;7.88;1.67;;;;;;;;;;2057879;28;20027;-60
2023/07/19 04:59:35;;;;;;;6.75;1.92;;;;;;;;;;2057858;28;20046;-59
2023/07/19 05:00:54;;;;;;;7.63;1.75;;;;;;;;;;2058041;28;20027;-60
2023/07/19 05:02:13;;;;;;;7.07;1.63;;;;;;;;;;2048471;28;20133;-61
2023/07/19 05:03:32;;;;;;;6.95;1.60;;;;;;;;;;2053450;28;20102;-60
2023/07/19 05:04:52;;;;;;;10.90;2.10;;;;;;;;;;2058310;28;20023;-59
2023/07/19 05:06:11;;;;;;;6.18;1.73;;;;;;;;;;2059102;28;20031;-60
2023/07/19 05:07:30;;;;;;;9.48;1.70;;;;;;;;;;2056066;28;20035;-59
2023/07/19 05:08:49;;;;;;;14.20;2.22;;;;;;;;;;2055633;28;20023;-59
2023/07/19 05:10:08;;;;;;;8.45;1.50;;;;;;;;;;2057412;28;20022;-60
2023/07/19 05:11:27;;;;;;;6.70;2.10;;;;;;;;;;2058664;28;20026;-60
2023/07/19 05:12:47;;;;;;;11.18;1.88;;;;;;;;;;2057713;28;20022;-61
2023/07/19 05:14:06;;;;;;;8.02;2.05;;;;;;;;;;2056676;28;20035;-61
2023/07/19 05:15:25;;;;;;;7.25;2.00;;;;;;;;;;2057299;28;20542;-64
2023/07/19 05:16:44;;;;;;;10.30;2.28;;;;;;;;;;2056933;28;20039;-60
2023/07/19 05:18:03;;;;;;;10.95;1.73;;;;;;;;;;2057194;28;20038;-60
2023/07/19 05:19:22;;;;;;;8.07;1.55;;;;;;;;;;2057092;28;20110;-59
2023/07/19 05:20:41;;;;;;;7.75;1.67;;;;;;;;;;2056354;28;20472;-60
2023/07/19 05:22:00;;;;;;;8.00;2.25;;;;;;;;;;2056151;28;20521;-61
2023/07/19 05:23:19;;;;;;;6.15;1.70;;;;;;;;;;2059958;28;20039;-63
2023/07/19 05:24:38;;;;;;;12.77;1.95;;;;;;;;;;2049866;28;20059;-64
2023/07/19 05:25:57;;;;;;;8.60;2.25;;;;;;;;;;2052893;28;20031;-64
2023/07/19 05:27:17;;;;;;;7.80;1.88;;;;;;;;;;2057081;28;20113;-64
2023/07/19 05:28:36;;;;;;;5.40;1.63;;;;;;;;;;2048131;28;20035;-64
2023/07/19 05:29:55;;;;;;;8.65;1.40;;;;;;;;;;2049899;28;20043;-61
2023/07/19 05:31:14;;;;;;;8.18;1.75;;;;;;;;;;2056685;28;20039;-61
2023/07/19 05:32:33;;;;;;;8.18;1.58;;;;;;;;;;2057553;28;20051;-60
2023/07/19 05:33:52;;;;;;;10.73;2.42;;;;;;;;;;2059199;28;20052;-64
2023/07/19 05:35:11;;;;;;;7.40;2.17;;;;;;;;;;2057706;28;20493;-60
2023/07/19 05:36:30;;;;;;;6.93;2.03;;;;;;;;;;2058052;28;20046;-61
2023/07/19 05:37:49;;;;;;;6.97;2.17;;;;;;;;;;2054515;28;20129;-61
2023/07/19 05:39:08;;;;;;;9.50;1.67;;;;;;;;;;2052968;28;20031;-59
2023/07/19 05:40:27;;;;;;;2.67;1.45;;;;;;;;;;2057488;28;20062;-61
2023/07/19 05:41:46;;;;;;;7.40;1.58;;;;;;;;;;2056801;28;20030;-60
2023/07/19 05:43:04;;;;;;;17.90;2.53;;;;;;;;;;2057778;28;20038;-62
2023/07/19 05:44:24;;;;;;;9.95;2.10;;;;;;;;;;2059585;28;20046;-60
2023/07/19 05:45:42;;;;;;;10.15;2.15;;;;;;;;;;2059266;28;20026;-59
2023/07/19 05:47:01;;;;;;;8.10;1.92;;;;;;;;;;2057749;28;20488;-60
2023/07/19 05:48:20;;;;;;;6.97;1.70;;;;;;;;;;2061431;28;20042;-59
2023/07/19 05:49:40;;;;;;;7.68;1.92;;;;;;;;;;2058211;28;20031;-64
2023/07/19 05:50:59;;;;;;;7.43;1.63;;;;;;;;;;2057030;28;20023;-62
2023/07/19 05:52:18;;;;;;;9.05;2.17;;;;;;;;;;2051008;28;20031;-59
2023/07/19 05:53:37;;;;;;;5.40;1.40;;;;;;;;;;2054851;28;20411;-59
2023/07/19 05:54:56;;;;;;;8.65;1.60;;;;;;;;;;2066391;28;20026;-60
2023/07/19 05:56:15;;;;;;;7.97;1.80;;;;;;;;;;2058920;28;20039;-61
2023/07/19 05:57:34;;;;;;;10.77;1.98;;;;;;;;;;2057405;28;20054;-61
2023/07/19 05:58:54;;;;;;;6.53;1.75;;;;;;;;;;2059686;28;20031;-60
2023/07/19 06:00:19;;;;;;;8.48;2.10;;;;;;;;;;2057800;28;20134;-59
2023/07/19 06:01:38;;;;;;;6.25;1.55;;;;;;;;;;2057593;28;20435;-62
2023/07/19 06:02:57;;;;;;;4.75;1.30;;;;;;;;;;2050163;28;20039;-60
2023/07/19 06:04:16;;;;;;;8.38;1.60;;;;;;;;;;2055812;28;20034;-59
2023/07/19 06:05:35;;;;;;;12.55;2.30;;;;;;;;;;2056731;28;20035;-59
2023/07/19 06:06:54;;;;;;;9.02;1.70;;;;;;;;;;2057120;28;20023;-66
2023/07/19 06:08:13;;;;;;;9.10;2.03;;;;;;;;;;2058329;28;20106;-62
2023/07/19 06:09:32;;;;;;;7.40;2.30;;;;;;;;;;2057832;28;20023;-60
2023/07/19 06:10:51;;;;;;;8.32;2.03;;;;;;;;;;2057015;28;20030;-62
2023/07/19 06:12:10;;;;;;;11.60;1.75;;;;;;;;;;2066743;28;20026;-60
2023/07/19 06:13:29;;;;;;;6.03;1.70;;;;;;;;;;2056502;28;20034;-61
2023/07/19 06:14:48;;;;;;;9.82;2.50;;;;;;;;;;2055555;28;20023;-61
2023/07/19 06:16:07;;;;;;;8.88;2.20;;;;;;;;;;2059141;28;20066;-62
2023/07/19 06:17:26;;;;;;;5.60;1.50;;;;;;;;;;2058008;28;20022;-58
2023/07/19 06:18:45;;;;;;;9.73;2.15;;;;;;;;;;2058351;28;20031;-59
2023/07/19 06:20:04;;;;;;;4.65;1.75;;;;;;;;;;2049587;28;20495;-59
2023/07/19 06:21:24;;;;;;;11.82;1.88;;;;;;;;;;2055749;28;20422;-60
2023/07/19 06:22:44;;;;;;;6.75;2.10;;;;;;;;;;2060570;28;20570;-59
2023/07/19 06:24:02;;;;;;;6.35;1.60;;;;;;;;;;2061663;28;20046;-61
2023/07/19 06:25:22;;;;;;;9.77;1.60;;;;;;;;;;2057003;28;20038;-59
2023/07/19 06:26:41;;;;;;;7.30;1.95;;;;;;;;;;2049707;28;20031;-60
2023/07/19 06:28:00;;;;;;;10.55;1.83;;;;;;;;;;2054985;28;20027;-59
2023/07/19 06:29:18;;;;;;;10.10;1.77;;;;;;;;;;2056003;28;20015;-59
2023/07/19 06:30:38;;;;;;;7.28;2.00;;;;;;;;;;2057752;28;20031;-60
2023/07/19 06:31:57;;;;;;;7.55;2.58;;;;;;;;;;2058458;28;20031;-63
2023/07/19 06:33:16;;;;;;;9.38;2.20;;;;;;;;;;2058375;28;20086;-59
2023/07/19 06:34:35;;;;;;;5.18;1.35;;;;;;;;;;2057185;28;20022;-59
2023/07/19 06:35:54;;;;;;;9.85;2.15;;;;;;;;;;2057234;28;20026;-59
2023/07/19 06:37:14;;;;;;;6.95;1.40;;;;;;;;;;2059260;28;20446;-60
2023/07/19 06:38:36;;;;;;;5.40;1.50;;;;;;;;;;2049725;28;20047;-60
2023/07/19 06:39:55;;;;;;;12.35;2.38;;;;;;;;;;2055657;28;20034;-58
2023/07/19 06:41:14;;;;;;;8.38;1.67;;;;;;;;;;2058945;28;20027;-59
2023/07/19 06:42:33;;;;;;;7.88;1.90;;;;;;;;;;2062053;28;20066;-60
2023/07/19 06:43:53;;;;;;;6.47;2.22;;;;;;;;;;2066443;28;20025;-60
2023/07/19 06:45:12;;;;;;;9.50;2.15;;;;;;;;;;2058159;28;20030;-59
2023/07/19 06:46:31;;;;;;;5.53;1.35;;;;;;;;;;2059006;28;20121;-59
2023/07/19 06:47:50;;;;;;;7.15;1.77;;;;;;;;;;2057716;28;20030;-59
2023/07/19 06:49:09;;;;;;;7.78;1.80;;;;;;;;;;2057719;28;20031;-58
2023/07/19 06:50:28;;;;;;;6.32;1.90;;;;;;;;;;2058110;28;20034;-59
2023/07/19 06:51:48;;;;;;;9.55;1.52;;;;;;;;;;2059104;28;20426;-60
2023/07/19 06:53:06;;;;;;;8.10;1.80;;;;;;;;;;2056677;28;20057;-59
2023/07/19 06:54:25;;;;;;;9.02;1.73;;;;;;;;;;2057926;28;20042;-59
2023/07/19 06:55:44;;;;;;;5.65;1.63;;;;;;;;;;2058488;28;20114;-59
2023/07/19 06:57:04;;;;;;;6.18;1.52;;;;;;;;;;2057334;28;20177;-60
2023/07/19 06:58:23;;;;;;;10.00;2.42;;;;;;;;;;2056947;28;20043;-59
2023/07/19 06:59:42;;;;;;;4.57;1.25;;;;;;;;;;2058747;28;20422;-59
2023/07/19 07:01:01;;;;;;;4.75;1.77;;;;;;;;;;2061465;28;20043;-60
2023/07/19 07:02:20;;;;;;;6.38;1.85;;;;;;;;;;2069006;28;20042;-59
2023/07/19 07:03:39;;;;;;;6.28;1.75;;;;;;;;;;2050136;28;20106;-58
2023/07/19 07:04:58;;;;;;;7.47;1.73;;;;;;;;;;2054313;28;20035;-59
2023/07/19 07:06:17;;;;;;;8.18;1.60;;;;;;;;;;2057644;28;20027;-61
2023/07/19 07:07:37;;;;;;;5.78;1.98;;;;;;;;;;2058119;28;20035;-59
2023/07/19 07:08:56;;;;;;;4.95;1.23;;;;;;;;;;2058822;28;20030;-60
2023/07/19 07:10:15;;;;;;;6.35;1.55;;;;;;;;;;2058686;28;20031;-59
2023/07/19 07:11:34;;;;;;;7.22;2.08;;;;;;;;;;2058279;28;20450;-59
2023/07/19 07:12:52;;;;;;;4.95;1.85;;;;;;;;;;2058625;28;20027;-59
2023/07/19 07:14:11;;;;;;;9.55;2.28;;;;;;;;;;2057912;28;20380;-58
2023/07/19 07:15:30;;;;;;;11.02;1.92;;;;;;;;;;2059627;28;20324;-59
2023/07/19 07:16:49;;;;;;;9.43;1.70;;;;;;;;;;2058037;28;20030;-61
2023/07/19 07:18:08;;;;;;;3.83;1.20;;;;;;;;;;2061998;28;20058;-60
2023/07/19 07:19:27;;;;;;;5.65;1.40;;;;;;;;;;2059089;28;20034;-60
2023/07/19 07:20:46;;;;;;;9.18;1.67;;;;;;;;;;2057440;28;20050;-60
2023/07/19 07:22:05;;;;;;;5.72;1.65;;;;;;;;;;2059688;28;20027;-60
2023/07/19 07:23:24;;;;;;;11.70;2.22;;;;;;;;;;2057565;28;20044;-60
2023/07/19 07:24:43;;;;;;;8.98;1.67;;;;;;;;;;2057882;28;20027;-60
2023/07/19 07:26:03;;;;;;;5.88;1.50;;;;;;;;;;2057776;28;20038;-59
2023/07/19 07:27:22;;;;;;;7.35;1.77;;;;;;;;;;2057929;28;20027;-60
2023/07/19 07:28:40;;;;;;;5.40;1.55;;;;;;;;;;2057201;28;20035;-60
2023/07/19 07:29:59;;;;;;;5.10;1.30;;;;;;;;;;2049863;28;20041;-60
2023/07/19 07:31:19;;;;;;;5.65;1.60;;;;;;;;;;2053296;28;20027;-59
2023/07/19 07:32:37;;;;;;;6.40;1.58;;;;;;;;;;2057956;28;20035;-61
2023/07/19 07:33:58;;;;;;;9.82;1.90;;;;;;;;;;2058513;28;20026;-60
2023/07/19 07:35:16;;;;;;;9.35;2.22;;;;;;;;;;2062616;28;20117;-59
2023/07/19 07:36:35;;;;;;;7.80;2.08;;;;;;;;;;2057094;28;20105;-60
2023/07/19 07:37:54;;;;;;;6.25;1.90;;;;;;;;;;2056605;28;20027;-61
2023/07/19 07:39:13;;;;;;;8.43;1.80;;;;;;;;;;2059432;28;20042;-60
2023/07/19 07:40:32;;;;;;;12.95;1.67;;;;;;;;;;2058828;28;20038;-60
2023/07/19 07:41:51;;;;;;;11.23;1.90;;;;;;;;;;2049820;28;20043;-59
2023/07/19 07:43:10;;;;;;;5.93;1.60;;;;;;;;;;2054465;28;20046;-60
2023/07/19 07:44:29;;;;;;;8.13;1.83;;;;;;;;;;2057614;28;20403;-61
2023/07/19 07:45:48;;;;;;;7.85;1.88;;;;;;;;;;2050591;28;20027;-60
2023/07/19 07:47:07;;;;;;;8.57;2.03;;;;;;;;;;2048683;28;20496;-59
2023/07/19 07:48:26;;;;;;;4.32;1.55;;;;;;;;;;2053680;28;20026;-59
2023/07/19 07:49:46;;;;;;;4.28;1.15;;;;;;;;;;2058814;28;20023;-60
2023/07/19 07:51:05;;;;;;;3.35;1.30;;;;;;;;;;2057936;28;20027;-62
2023/07/19 07:52:25;;;;;;;9.40;2.38;;;;;;;;;;2056546;28;20031;-59